createdAt,value
2023-06-09T00:01:27.039Z,73.38
2023-06-09T00:03:28.723Z,73.23
2023-06-09T00:05:33.184Z,73.41
2023-06-09T00:07:37.161Z,73.13
2023-06-09T00:09:38.839Z,73.85
2023-06-09T00:11:40.572Z,74.06
2023-06-09T00:13:42.223Z,74.58
2023-06-09T00:15:43.905Z,74.48
2023-06-09T00:17:46.973Z,74.49
2023-06-09T00:19:50.486Z,74.71
2023-06-09T00:21:52.073Z,74.82
2023-06-09T00:23:53.718Z,74.95
2023-06-09T00:25:56.022Z,74.77
2023-06-09T00:27:57.622Z,74.56
2023-06-09T00:29:59.171Z,74.34
2023-06-09T00:32:00.692Z,74.38
2023-06-09T00:34:02.320Z,73.77
2023-06-09T00:36:04.017Z,73.84
2023-06-09T00:38:05.942Z,73.40
2023-06-09T00:40:08.468Z,73.31
2023-06-09T00:42:10.052Z,72.82
2023-06-09T00:44:13.357Z,71.96
2023-06-09T00:46:15.944Z,72.33
2023-06-09T00:48:17.888Z,72.34
2023-06-09T00:50:21.204Z,72.74
2023-06-09T00:52:23.569Z,71.94
2023-06-09T00:54:25.400Z,73.42
2023-06-09T00:56:27.266Z,73.85
2023-06-09T00:58:28.847Z,73.69
2023-06-09T01:00:30.895Z,73.62
2023-06-09T01:02:32.744Z,73.86
2023-06-09T01:04:36.248Z,74.19
2023-06-09T01:07:09.304Z,75.07
2023-06-09T01:09:21.425Z,74.66
2023-06-09T01:11:48.013Z,75.23
2023-06-09T01:13:54.716Z,76.29
2023-06-09T01:16:06.744Z,76.37
2023-06-09T01:18:10.225Z,75.51
2023-06-09T01:20:17.241Z,75.90
2023-06-09T01:22:29.594Z,76.17
2023-06-09T01:24:47.449Z,75.33
2023-06-09T01:26:51.824Z,75.56
2023-06-09T01:28:56.540Z,75.78
2023-06-09T01:30:59.376Z,75.82
2023-06-09T01:33:07.337Z,75.85
2023-06-09T01:35:10.833Z,76.52
2023-06-09T01:37:13.667Z,76.29
2023-06-09T01:39:15.764Z,76.53
2023-06-09T01:41:18.404Z,77.89
2023-06-09T01:43:20.249Z,77.87
2023-06-09T01:45:21.944Z,77.84
2023-06-09T01:47:24.065Z,77.88
2023-06-09T01:49:31.081Z,78.42
2023-06-09T01:51:45.117Z,79.26
2023-06-09T01:53:54.756Z,78.19
2023-06-09T01:56:15.445Z,77.74
2023-06-09T01:58:24.958Z,77.96
2023-06-09T02:00:27.909Z,78.54
2023-06-09T02:02:31.565Z,77.64
2023-06-09T02:04:35.748Z,77.92
2023-06-09T02:06:37.891Z,78.24
2023-06-09T02:08:40.844Z,78.57
2023-06-09T02:10:42.799Z,78.45
2023-06-09T02:12:44.431Z,80.27
2023-06-09T02:14:46.136Z,78.92
2023-06-09T02:16:48.757Z,80.31
2023-06-09T02:18:50.532Z,79.57
2023-06-09T02:20:52.187Z,79.01
2023-06-09T02:22:53.743Z,78.83
2023-06-09T02:24:56.347Z,78.58
2023-06-09T02:26:58.556Z,79.44
2023-06-09T02:29:00.723Z,79.41
2023-06-09T02:31:06.746Z,78.96
2023-06-09T02:33:08.591Z,78.81
2023-06-09T02:35:11.661Z,79.61
2023-06-09T02:37:13.585Z,79.63
2023-06-09T02:39:18.475Z,80.11
2023-06-09T02:41:21.443Z,81.48
2023-06-09T02:43:23.043Z,82.75
2023-06-09T02:45:24.732Z,81.66
2023-06-09T02:47:27.156Z,80.84
2023-06-09T02:49:29.292Z,80.92
2023-06-09T02:51:31.358Z,80.85
2023-06-09T02:53:33.506Z,80.60
2023-06-09T02:55:36.674Z,79.99
2023-06-09T02:57:38.935Z,79.77
2023-06-09T02:59:41.637Z,79.22
2023-06-09T03:01:44.532Z,79.06
2023-06-09T03:03:49.765Z,78.46
2023-06-09T03:05:53.349Z,78.01
2023-06-09T03:07:55.198Z,78.21
2023-06-09T03:09:58.731Z,77.32
2023-06-09T03:12:00.582Z,77.20
2023-06-09T03:14:02.280Z,76.78
2023-06-09T03:16:04.482Z,76.63
2023-06-09T03:18:10.945Z,76.32
2023-06-09T03:20:13.016Z,75.71
2023-06-09T03:22:16.658Z,75.44
2023-06-09T03:24:20.196Z,75.10
2023-06-09T03:26:22.091Z,75.08
2023-06-09T03:28:24.032Z,74.44
2023-06-09T03:30:25.585Z,73.01
2023-06-09T03:32:27.243Z,72.48
2023-06-09T03:34:30.310Z,71.20
2023-06-09T03:36:34.874Z,70.75
2023-06-09T03:38:38.032Z,69.94
2023-06-09T03:40:40.314Z,68.42
2023-06-09T03:42:42.736Z,68.35
2023-06-09T03:44:44.373Z,67.73
2023-06-09T03:46:46.064Z,68.09
2023-06-09T03:48:48.097Z,67.36
2023-06-09T03:50:50.683Z,67.01
2023-06-09T03:52:53.923Z,66.87
2023-06-09T03:54:56.075Z,66.82
2023-06-09T03:56:57.805Z,66.42
2023-06-09T03:58:59.500Z,66.00
2023-06-09T04:01:02.407Z,66.00
2023-06-09T04:03:04.868Z,65.80
2023-06-09T04:05:07.196Z,66.04
2023-06-09T04:07:09.065Z,65.46
2023-06-09T04:09:11.101Z,65.91
2023-06-09T04:11:12.870Z,65.60
2023-06-09T04:13:14.884Z,65.76
2023-06-09T04:15:17.848Z,66.28
2023-06-09T04:17:21.347Z,66.20
2023-06-09T04:19:23.522Z,66.11
2023-06-09T04:21:25.180Z,65.09
2023-06-09T04:23:29.414Z,64.91
2023-06-09T04:25:35.853Z,65.19
2023-06-09T04:27:43.449Z,65.59
2023-06-09T04:29:46.396Z,65.62
2023-06-09T04:31:49.474Z,65.53
2023-06-09T04:33:55.241Z,65.20
2023-06-09T04:35:57.072Z,65.22
2023-06-09T04:38:03.729Z,65.16
2023-06-09T04:40:09.957Z,64.79
2023-06-09T04:42:12.418Z,65.17
2023-06-09T04:44:14.945Z,65.10
2023-06-09T04:46:18.686Z,64.37
2023-06-09T04:48:20.796Z,64.36
2023-06-09T04:50:22.598Z,63.82
2023-06-09T04:52:25.006Z,64.46
2023-06-09T04:54:29.825Z,64.18
2023-06-09T04:56:35.070Z,63.46
2023-06-09T04:58:36.860Z,63.31
2023-06-09T05:00:40.655Z,63.00
2023-06-09T05:02:43.238Z,62.31
2023-06-09T05:04:44.944Z,63.01
2023-06-09T05:06:46.735Z,62.49
2023-06-09T05:08:51.977Z,60.99
2023-06-09T05:10:54.450Z,61.20
2023-06-09T05:12:56.679Z,61.86
2023-06-09T05:14:58.448Z,61.34
2023-06-09T05:17:01.236Z,61.25
2023-06-09T05:19:03.491Z,61.75
2023-06-09T05:21:06.096Z,60.26
2023-06-09T05:23:08.672Z,60.53
2023-06-09T05:25:10.880Z,60.68
2023-06-09T05:27:12.906Z,60.87
2023-06-09T05:29:14.710Z,60.35
2023-06-09T05:31:17.980Z,59.91
2023-06-09T05:33:19.742Z,60.62
2023-06-09T05:35:21.370Z,60.25
2023-06-09T05:37:23.019Z,60.25
2023-06-09T05:39:24.729Z,60.27
2023-06-09T05:41:26.908Z,59.52
2023-06-09T05:43:29.018Z,60.41
2023-06-09T05:45:30.611Z,59.96
2023-06-09T05:47:32.868Z,60.37
2023-06-09T05:49:35.445Z,59.45
2023-06-09T05:51:37.550Z,59.09
2023-06-09T05:53:39.712Z,58.81
2023-06-09T05:55:42.181Z,58.66
2023-06-09T05:57:46.589Z,57.10
2023-06-09T05:59:48.171Z,56.76
2023-06-09T06:01:51.001Z,57.45
2023-06-09T06:03:52.640Z,57.00
2023-06-09T06:05:54.628Z,57.64
2023-06-09T06:07:58.545Z,58.60
2023-06-09T06:10:00.268Z,57.75
2023-06-09T06:12:02.167Z,57.69
2023-06-09T06:14:03.778Z,58.21
2023-06-09T06:16:05.587Z,56.16
2023-06-09T06:18:07.466Z,57.57
2023-06-09T06:20:10.571Z,57.44
2023-06-09T06:22:12.531Z,55.50
2023-06-09T06:24:14.458Z,55.75
2023-06-09T06:26:16.679Z,55.21
2023-06-09T06:28:18.256Z,54.25
2023-06-09T06:30:19.862Z,53.70
2023-06-09T06:32:21.681Z,54.72
2023-06-09T06:34:23.239Z,54.05
2023-06-09T06:36:27.132Z,53.44
2023-06-09T06:38:29.065Z,54.39
2023-06-09T06:40:30.627Z,54.34
2023-06-09T06:42:32.469Z,53.38
2023-06-09T06:44:43.480Z,52.47
2023-06-09T06:46:45.111Z,52.18
2023-06-09T06:48:46.700Z,52.48
2023-06-09T06:50:48.256Z,52.66
2023-06-09T06:52:49.962Z,51.95
2023-06-09T06:54:51.590Z,51.25
2023-06-09T06:56:53.194Z,50.78
2023-06-09T06:58:54.832Z,51.03
2023-06-09T07:00:56.879Z,50.39
2023-06-09T07:02:58.746Z,50.29
2023-06-09T07:05:00.697Z,48.96
2023-06-09T07:07:03.706Z,48.91
2023-06-09T07:09:06.005Z,48.88
2023-06-09T07:11:07.886Z,48.68
2023-06-09T07:13:09.536Z,48.39
2023-06-09T07:15:11.342Z,47.92
2023-06-09T07:17:12.908Z,48.25
2023-06-09T07:19:14.512Z,48.36
2023-06-09T07:21:16.144Z,49.05
2023-06-09T07:23:17.731Z,47.78
2023-06-09T07:25:19.640Z,46.67
2023-06-09T07:27:21.919Z,48.00
2023-06-09T07:29:23.502Z,45.54
2023-06-09T07:31:25.153Z,46.45
2023-06-09T07:33:32.227Z,45.54
2023-06-09T07:35:34.101Z,46.68
2023-06-09T07:37:40.379Z,45.05
2023-06-09T07:39:42.149Z,46.40
2023-06-09T07:41:43.724Z,44.76
2023-06-09T07:43:45.919Z,45.18
2023-06-09T07:45:47.615Z,44.47
2023-06-09T07:47:49.272Z,42.84
2023-06-09T07:49:51.125Z,45.29
2023-06-09T07:51:53.461Z,45.75
2023-06-09T07:53:55.372Z,45.24
2023-06-09T07:55:57.911Z,46.45
2023-06-09T07:57:59.964Z,44.60
2023-06-09T08:00:01.531Z,45.62
2023-06-09T08:02:04.436Z,44.62
2023-06-09T08:04:05.992Z,44.41
2023-06-09T08:06:09.117Z,43.11
2023-06-09T08:08:11.049Z,43.57
2023-06-09T08:10:12.811Z,44.60
2023-06-09T08:12:16.538Z,45.19
2023-06-09T08:14:18.850Z,44.75
2023-06-09T08:16:20.551Z,44.08
2023-06-09T08:18:22.274Z,43.39
2023-06-09T08:20:23.875Z,43.64
2023-06-09T08:22:25.570Z,44.93
2023-06-09T08:24:27.205Z,42.56
2023-06-09T08:26:28.808Z,44.10
2023-06-09T08:28:30.553Z,43.76
2023-06-09T08:30:32.348Z,43.98
2023-06-09T08:32:34.860Z,42.02
2023-06-09T08:34:36.897Z,39.83
2023-06-09T08:36:38.492Z,39.96
2023-06-09T08:38:40.065Z,39.96
2023-06-09T08:40:41.840Z,41.34
2023-06-09T08:42:47.601Z,40.69
2023-06-09T08:44:51.928Z,39.33
2023-06-09T08:46:54.634Z,39.46
2023-06-09T08:48:58.849Z,39.27
2023-06-09T08:51:01.315Z,37.92
2023-06-09T08:53:03.798Z,37.15
2023-06-09T08:55:06.737Z,37.45
2023-06-09T08:57:10.323Z,38.16
2023-06-09T08:59:13.376Z,37.70
2023-06-09T09:01:15.882Z,39.32
2023-06-09T09:03:18.381Z,37.70
2023-06-09T09:05:20.837Z,37.15
2023-06-09T09:07:22.544Z,36.68
2023-06-09T09:09:24.180Z,38.33
2023-06-09T09:11:27.913Z,36.05
2023-06-09T09:13:30.630Z,37.63
2023-06-09T09:15:32.496Z,36.40
2023-06-09T09:17:34.873Z,36.54
2023-06-09T09:19:37.448Z,34.27
2023-06-09T09:21:40.227Z,36.28
2023-06-09T09:23:41.919Z,36.43
2023-06-09T09:25:45.146Z,37.69
2023-06-09T09:27:59.742Z,37.32
2023-06-09T09:30:01.287Z,37.10
2023-06-09T09:32:03.705Z,36.64
2023-06-09T09:34:05.676Z,35.37
2023-06-09T09:36:11.477Z,35.27
2023-06-09T09:38:17.848Z,32.86
2023-06-09T09:40:19.475Z,33.82
2023-06-09T09:42:22.212Z,34.17
2023-06-09T09:44:24.092Z,34.55
2023-06-09T09:46:26.317Z,34.67
2023-06-09T09:48:28.720Z,33.82
2023-06-09T09:50:31.226Z,32.15
2023-06-09T09:52:35.708Z,33.33
2023-06-09T09:54:37.809Z,32.77
2023-06-09T09:56:39.522Z,33.02
2023-06-09T09:58:43.230Z,33.02
2023-06-09T10:00:48.019Z,32.06
2023-06-09T10:02:54.546Z,31.85
2023-06-09T10:04:57.831Z,31.82
2023-06-09T10:07:02.453Z,32.99
2023-06-09T10:09:05.496Z,32.67
2023-06-09T10:11:08.190Z,32.90
2023-06-09T10:13:13.108Z,32.74
2023-06-09T10:15:15.393Z,30.59
2023-06-09T10:17:20.044Z,33.40
2023-06-09T10:19:24.205Z,33.93
2023-06-09T10:21:26.381Z,32.73
2023-06-09T10:23:28.971Z,34.19
2023-06-09T10:25:30.762Z,32.79
2023-06-09T10:27:32.338Z,33.24
2023-06-09T10:29:34.481Z,33.06
2023-06-09T10:31:41.968Z,31.93
2023-06-09T10:33:46.289Z,32.12
2023-06-09T10:35:49.869Z,33.01
2023-06-09T10:37:54.972Z,32.31
2023-06-09T10:40:12.237Z,32.15
2023-06-09T10:42:44.390Z,32.55
2023-06-09T10:44:58.416Z,32.92
2023-06-09T10:47:00.394Z,33.09
2023-06-09T10:49:02.088Z,32.90
2023-06-09T10:51:28.844Z,31.94
2023-06-09T10:53:31.044Z,31.82
2023-06-09T10:55:32.574Z,30.71
2023-06-09T10:57:42.201Z,31.57
2023-06-09T10:59:43.914Z,31.89
2023-06-09T11:02:09.582Z,31.26
2023-06-09T11:04:29.583Z,30.28
2023-06-09T11:06:31.132Z,30.40
2023-06-09T11:09:09.898Z,29.21
2023-06-09T11:11:16.257Z,29.08
2023-06-09T11:13:37.454Z,29.24
2023-06-09T11:16:02.158Z,26.34
2023-06-09T11:18:17.275Z,28.98
2023-06-09T11:20:20.496Z,28.28
2023-06-09T11:22:23.199Z,29.15
2023-06-09T11:24:49.232Z,28.46
2023-06-09T11:26:51.667Z,29.10
2023-06-09T11:28:53.591Z,29.78
2023-06-09T11:31:03.649Z,29.95
2023-06-09T11:33:05.982Z,31.16
2023-06-09T11:35:08.084Z,30.41
2023-06-09T11:37:10.780Z,29.71
2023-06-09T11:39:12.546Z,27.46
2023-06-09T11:41:15.078Z,25.61
2023-06-09T11:43:20.499Z,26.29
2023-06-09T11:45:26.408Z,26.45
2023-06-09T11:47:31.860Z,25.60
2023-06-09T11:49:34.361Z,25.21
2023-06-09T11:51:54.943Z,27.24
2023-06-09T11:53:56.609Z,24.45
2023-06-09T11:56:01.250Z,24.01
2023-06-09T11:58:04.110Z,23.80
2023-06-09T12:00:14.452Z,24.16
2023-06-09T12:02:18.309Z,24.48
2023-06-09T12:04:20.053Z,24.57
2023-06-09T12:06:21.688Z,24.68
2023-06-09T12:08:23.412Z,25.49
2023-06-09T12:10:28.807Z,24.23
2023-06-09T12:12:30.702Z,23.93
2023-06-09T12:14:33.130Z,23.63
2023-06-09T12:16:34.708Z,25.94
2023-06-09T12:18:36.224Z,23.36
2023-06-09T12:20:38.493Z,26.73
2023-06-09T12:22:40.644Z,27.84
2023-06-09T12:24:42.292Z,26.64
2023-06-09T12:26:48.854Z,25.57
2023-06-09T12:28:56.255Z,25.68
2023-06-09T12:31:13.069Z,25.34
2023-06-09T12:33:19.869Z,27.59
2023-06-09T12:35:21.575Z,27.28
2023-06-09T12:37:23.851Z,25.83
2023-06-09T12:39:34.276Z,26.19
2023-06-09T12:41:40.993Z,25.83
2023-06-09T12:43:53.092Z,26.03
2023-06-09T12:45:57.112Z,25.80
2023-06-09T12:47:58.783Z,25.39
2023-06-09T12:50:01.260Z,25.22
2023-06-09T12:52:03.166Z,25.38
2023-06-09T12:54:08.605Z,25.23
2023-06-09T12:56:10.972Z,25.18
2023-06-09T12:58:12.725Z,25.66
2023-06-09T13:00:21.770Z,25.08
2023-06-09T13:02:24.654Z,25.67
2023-06-09T13:04:26.599Z,26.29
2023-06-09T13:06:28.276Z,26.14
2023-06-09T13:08:29.790Z,26.05
2023-06-09T13:10:32.103Z,27.03
2023-06-09T13:12:33.684Z,26.52
2023-06-09T13:14:35.229Z,27.09
2023-06-09T13:16:37.161Z,26.50
2023-06-09T13:18:40.840Z,26.90
2023-06-09T13:20:43.119Z,28.32
2023-06-09T13:22:45.875Z,28.90
2023-06-09T13:24:47.730Z,28.96
2023-06-09T13:26:50.502Z,28.98
2023-06-09T13:28:52.040Z,28.53
2023-06-09T13:30:53.755Z,29.67
2023-06-09T13:32:55.448Z,29.51
2023-06-09T13:34:57.302Z,29.80
2023-06-09T13:36:59.305Z,30.75
2023-06-09T13:39:01.095Z,30.19
2023-06-09T13:41:02.894Z,29.86
2023-06-09T13:43:04.518Z,29.77
2023-06-09T13:45:07.177Z,30.05
2023-06-09T13:47:09.269Z,29.67
2023-06-09T13:49:10.909Z,30.13
2023-06-09T13:51:12.471Z,29.95
2023-06-09T13:53:14.148Z,29.03
2023-06-09T13:55:15.845Z,28.68
2023-06-09T13:57:17.800Z,29.05
2023-06-09T13:59:22.812Z,28.61
2023-06-09T14:01:24.524Z,28.81
2023-06-09T14:03:26.654Z,29.16
2023-06-09T14:05:28.276Z,28.26
2023-06-09T14:07:30.089Z,29.03
2023-06-09T14:09:31.745Z,28.51
2023-06-09T14:11:33.235Z,28.28
2023-06-09T14:13:35.017Z,28.11
2023-06-09T14:15:37.162Z,28.07
2023-06-09T14:17:39.074Z,28.31
2023-06-09T14:19:41.136Z,28.68
2023-06-09T14:21:43.232Z,28.98
2023-06-09T14:23:44.971Z,29.31
2023-06-09T14:25:46.520Z,29.40
2023-06-09T14:27:50.498Z,29.42
2023-06-09T14:29:53.039Z,28.76
2023-06-09T14:31:55.166Z,29.40
2023-06-09T14:33:56.810Z,28.54
2023-06-09T14:35:58.371Z,28.51
2023-06-09T14:38:02.482Z,28.81
2023-06-09T14:40:04.415Z,29.01
2023-06-09T14:42:07.653Z,28.38
2023-06-09T14:44:09.240Z,27.96
2023-06-09T14:46:11.213Z,29.07
2023-06-09T14:48:12.917Z,28.78
2023-06-09T14:50:22.330Z,28.36
2023-06-09T14:52:23.954Z,28.22
2023-06-09T14:54:25.543Z,26.18
2023-06-09T14:56:29.208Z,26.89
2023-06-09T14:58:31.387Z,25.21
2023-06-09T15:00:33.736Z,25.47
2023-06-09T15:02:35.692Z,23.18
2023-06-09T15:04:37.479Z,24.41
2023-06-09T15:06:39.065Z,24.04
2023-06-09T15:08:41.307Z,22.80
2023-06-09T15:10:46.095Z,22.45
2023-06-09T15:12:47.647Z,21.24
2023-06-09T15:14:50.152Z,21.07
2023-06-09T15:16:57.137Z,21.05
2023-06-09T15:18:59.856Z,21.41
2023-06-09T15:21:01.408Z,21.55
2023-06-09T15:23:04.240Z,22.53
2023-06-09T15:25:10.217Z,22.98
2023-06-09T15:27:12.180Z,24.44
2023-06-09T15:29:14.438Z,24.57
2023-06-09T15:31:15.998Z,24.71
2023-06-09T15:33:18.764Z,25.14
2023-06-09T15:35:20.374Z,25.33
2023-06-09T15:37:21.889Z,25.62
2023-06-09T15:39:23.410Z,25.43
2023-06-09T15:41:26.611Z,26.67
2023-06-09T15:43:34.782Z,26.36
2023-06-09T15:45:40.978Z,26.22
2023-06-09T15:47:42.661Z,26.86
2023-06-09T15:49:44.287Z,26.89
2023-06-09T15:51:45.848Z,26.68
2023-06-09T15:53:47.575Z,27.51
2023-06-09T15:55:50.871Z,28.11
2023-06-09T15:57:52.807Z,28.68
2023-06-09T15:59:54.317Z,28.97
2023-06-09T16:01:55.960Z,29.88
2023-06-09T16:03:57.512Z,29.48
2023-06-09T16:05:59.233Z,29.94
2023-06-09T16:08:10.999Z,29.49
2023-06-09T16:10:12.626Z,29.56
2023-06-09T16:12:14.566Z,29.05
2023-06-09T16:14:16.071Z,28.92
2023-06-09T16:16:17.656Z,29.56
2023-06-09T16:18:22.559Z,29.44
2023-06-09T16:20:24.258Z,30.11
2023-06-09T16:22:28.941Z,30.31
2023-06-09T16:24:30.568Z,30.50
2023-06-09T16:26:32.431Z,30.02
2023-06-09T16:28:34.006Z,29.89
2023-06-09T16:30:39.282Z,30.84
2023-06-09T16:32:43.586Z,30.42
2023-06-09T16:34:45.531Z,30.37
2023-06-09T16:36:47.104Z,30.14
2023-06-09T16:38:48.697Z,29.41
2023-06-09T16:40:51.065Z,29.40
2023-06-09T16:42:52.997Z,28.48
2023-06-09T16:44:54.525Z,29.54
2023-06-09T16:46:57.019Z,28.75
2023-06-09T16:48:58.630Z,28.24
2023-06-09T16:51:03.816Z,28.37
2023-06-09T16:53:05.918Z,28.28
2023-06-09T16:55:08.260Z,28.01
2023-06-09T16:57:10.928Z,28.59
2023-06-09T16:59:12.696Z,28.65
2023-06-09T17:01:14.284Z,28.69
2023-06-09T17:03:16.044Z,28.71
2023-06-09T17:05:17.884Z,28.68
2023-06-09T17:07:19.486Z,28.72
2023-06-09T17:09:21.167Z,28.90
2023-06-09T17:11:22.685Z,29.19
2023-06-09T17:13:24.481Z,29.15
2023-06-09T17:15:26.062Z,29.47
2023-06-09T17:17:27.703Z,29.54
2023-06-09T17:19:29.188Z,29.88
2023-06-09T17:21:34.650Z,30.23
2023-06-09T17:23:36.666Z,30.00
2023-06-09T17:25:38.793Z,30.01
2023-06-09T17:27:40.896Z,30.20
2023-06-09T17:29:42.512Z,30.34
2023-06-09T17:31:44.100Z,30.55
2023-06-09T17:33:45.815Z,30.12
2023-06-09T17:35:47.838Z,31.58
2023-06-09T17:37:49.313Z,31.23
2023-06-09T17:39:50.911Z,31.11
2023-06-09T17:41:52.687Z,31.20
2023-06-09T17:43:54.583Z,31.60
2023-06-09T17:45:56.162Z,31.44
2023-06-09T17:47:58.059Z,30.53
2023-06-09T17:49:59.505Z,31.05
2023-06-09T17:52:01.305Z,31.45
2023-06-09T17:54:04.956Z,31.17
2023-06-09T17:56:07.026Z,31.25
2023-06-09T17:58:11.797Z,30.97
2023-06-09T18:00:15.281Z,31.53
2023-06-09T18:02:17.294Z,31.63
2023-06-09T18:04:18.873Z,32.08
2023-06-09T18:06:20.509Z,32.68
2023-06-09T18:08:22.314Z,31.99
2023-06-09T18:10:24.029Z,32.50
2023-06-09T18:12:25.674Z,32.48
2023-06-09T18:14:27.207Z,32.65
2023-06-09T18:16:28.816Z,32.49
2023-06-09T18:18:30.384Z,32.82
2023-06-09T18:20:32.269Z,32.90
2023-06-09T18:22:34.240Z,33.15
2023-06-09T18:24:36.347Z,33.47
2023-06-09T18:26:37.889Z,33.14
2023-06-09T18:28:39.568Z,33.37
2023-06-09T18:30:43.802Z,33.12
2023-06-09T18:32:45.382Z,32.13
2023-06-09T18:34:50.312Z,32.51
2023-06-09T18:36:51.878Z,32.69
2023-06-09T18:38:53.462Z,33.31
2023-06-09T18:40:56.156Z,33.73
2023-06-09T18:42:57.945Z,33.16
2023-06-09T18:44:59.441Z,33.90
2023-06-09T18:47:01.302Z,33.14
2023-06-09T18:49:03.017Z,33.31
2023-06-09T18:51:04.867Z,33.71
2023-06-09T18:53:06.473Z,34.08
2023-06-09T18:55:08.922Z,33.86
2023-06-09T18:57:10.684Z,34.04
2023-06-09T18:59:12.219Z,34.49
2023-06-09T19:01:13.824Z,34.31
2023-06-09T19:03:15.636Z,34.23
2023-06-09T19:05:17.343Z,34.30
2023-06-09T19:07:18.915Z,34.87
2023-06-09T19:09:20.459Z,34.64
2023-06-09T19:11:22.229Z,34.75
2023-06-09T19:13:24.239Z,35.29
2023-06-09T19:15:26.841Z,35.01
2023-06-09T19:17:28.501Z,35.06
2023-06-09T19:19:30.380Z,34.99
2023-06-09T19:21:31.895Z,35.20
2023-06-09T19:23:34.020Z,34.82
2023-06-09T19:25:35.725Z,35.44
2023-06-09T19:27:37.336Z,35.21
2023-06-09T19:29:38.957Z,35.32
2023-06-09T19:31:40.527Z,35.25
2023-06-09T19:33:43.274Z,35.47
2023-06-09T19:35:45.215Z,35.92
2023-06-09T19:37:46.690Z,35.66
2023-06-09T19:39:52.965Z,35.93
2023-06-09T19:41:54.735Z,36.24
2023-06-09T19:43:56.861Z,36.48
2023-06-09T19:46:00.883Z,36.34
2023-06-09T19:48:02.683Z,36.33
2023-06-09T19:50:04.592Z,36.88
2023-06-09T19:52:06.398Z,36.35
2023-06-09T19:54:08.276Z,36.64
2023-06-09T19:56:12.362Z,37.13
2023-06-09T19:58:14.085Z,37.15
2023-06-09T20:00:19.269Z,36.96
2023-06-09T20:02:21.597Z,37.35
2023-06-09T20:04:23.509Z,37.39
2023-06-09T20:06:25.221Z,37.86
2023-06-09T20:08:26.961Z,37.52
2023-06-09T20:10:29.457Z,37.46
2023-06-09T20:12:31.438Z,37.87
2023-06-09T20:14:33.591Z,38.00
2023-06-09T20:16:37.548Z,37.90
2023-06-09T20:18:39.564Z,38.04
2023-06-09T20:20:42.859Z,37.92
2023-06-09T20:22:46.885Z,38.47
2023-06-09T20:24:48.659Z,38.64
2023-06-09T20:26:51.372Z,39.17
2023-06-09T20:28:53.150Z,39.78
2023-06-09T20:30:57.538Z,39.75
2023-06-09T20:32:59.450Z,40.37
2023-06-09T20:35:01.512Z,40.95
2023-06-09T20:37:04.469Z,40.81
2023-06-09T20:39:10.188Z,41.09
2023-06-09T20:41:11.890Z,41.80
2023-06-09T20:43:18.580Z,41.17
2023-06-09T20:45:22.780Z,41.58
2023-06-09T20:47:25.200Z,41.49
2023-06-09T20:49:29.275Z,42.10
2023-06-09T20:51:30.921Z,42.17
2023-06-09T20:53:32.642Z,42.11
2023-06-09T20:55:34.507Z,43.01
2023-06-09T20:57:36.208Z,42.97
2023-06-09T20:59:39.052Z,44.42
2023-06-09T21:01:40.666Z,43.61
2023-06-09T21:03:48.088Z,43.73
2023-06-09T21:05:50.631Z,43.90
2023-06-09T21:07:52.169Z,44.16
2023-06-09T21:09:53.740Z,45.81
2023-06-09T21:11:55.951Z,44.91
2023-06-09T21:13:58.033Z,45.62
2023-06-09T21:15:59.635Z,45.76
2023-06-09T21:18:02.397Z,45.47
2023-06-09T21:20:13.062Z,46.36
2023-06-09T21:22:14.878Z,45.20
2023-06-09T21:24:16.782Z,45.10
2023-06-09T21:26:19.437Z,45.97
2023-06-09T21:28:21.018Z,46.13
2023-06-09T21:30:22.717Z,47.27
2023-06-09T21:32:24.652Z,46.37
2023-06-09T21:34:26.470Z,46.36
2023-06-09T21:36:28.334Z,46.05
2023-06-09T21:38:29.987Z,46.15
2023-06-09T21:40:31.632Z,46.16
2023-06-09T21:42:33.170Z,45.96
2023-06-09T21:44:34.739Z,45.81
2023-06-09T21:46:36.353Z,45.79
2023-06-09T21:48:37.887Z,46.17
2023-06-09T21:50:39.853Z,46.21
2023-06-09T21:52:41.583Z,46.14
2023-06-09T21:54:43.474Z,46.60
2023-06-09T21:56:45.036Z,46.95
2023-06-09T21:58:46.825Z,46.79
2023-06-09T22:00:48.723Z,46.77
2023-06-09T22:02:50.343Z,46.84
2023-06-09T22:04:51.884Z,47.08
2023-06-09T22:06:53.759Z,46.90
2023-06-09T22:08:55.281Z,47.28
2023-06-09T22:10:56.869Z,47.14
2023-06-09T22:12:58.395Z,47.14
2023-06-09T22:15:00.199Z,47.15
2023-06-09T22:17:03.145Z,47.25
2023-06-09T22:19:06.059Z,47.88
2023-06-09T22:21:09.071Z,47.29
2023-06-09T22:23:10.673Z,47.80
2023-06-09T22:25:12.496Z,47.97
2023-06-09T22:27:14.726Z,48.00
2023-06-09T22:29:16.253Z,47.58
2023-06-09T22:31:18.145Z,47.79
2023-06-09T22:33:19.709Z,47.66
2023-06-09T22:35:21.398Z,48.35
2023-06-09T22:37:22.999Z,48.10
2023-06-09T22:39:24.919Z,48.51
2023-06-09T22:41:27.449Z,48.67
2023-06-09T22:43:29.091Z,48.90
2023-06-09T22:45:30.690Z,48.48
2023-06-09T22:47:32.358Z,48.43
2023-06-09T22:49:36.225Z,48.71
2023-06-09T22:51:37.724Z,48.65
2023-06-09T22:53:44.804Z,49.23
2023-06-09T22:55:46.587Z,49.03
2023-06-09T22:57:50.094Z,49.03
2023-06-09T22:59:51.717Z,49.08
2023-06-09T23:01:53.504Z,49.12
2023-06-09T23:03:55.203Z,49.33
2023-06-09T23:05:57.561Z,49.27
2023-06-09T23:07:59.121Z,49.37
2023-06-09T23:10:00.779Z,49.55
2023-06-09T23:12:02.541Z,49.63
2023-06-09T23:14:05.337Z,49.38
2023-06-09T23:16:07.379Z,49.41
2023-06-09T23:18:10.046Z,49.24
2023-06-09T23:20:12.232Z,49.50
2023-06-09T23:22:14.635Z,49.30
2023-06-09T23:24:16.635Z,49.36
2023-06-09T23:26:18.808Z,49.73
2023-06-09T23:28:21.014Z,49.93
2023-06-09T23:30:22.692Z,49.79
2023-06-09T23:32:24.406Z,50.09
2023-06-09T23:34:26.201Z,50.07
2023-06-09T23:36:29.122Z,50.58
2023-06-09T23:38:30.833Z,50.89
2023-06-09T23:40:32.791Z,51.42
2023-06-09T23:42:34.356Z,51.44
2023-06-09T23:44:36.462Z,53.03
2023-06-09T23:46:38.012Z,53.84
2023-06-09T23:48:39.560Z,54.98
2023-06-09T23:50:41.254Z,53.94
2023-06-09T23:52:42.874Z,53.34
2023-06-09T23:54:44.497Z,53.10
2023-06-09T23:56:46.057Z,54.07
2023-06-09T23:58:47.570Z,53.86
